createdAt,value
2022-11-27T00:02:07.869Z,57.70
2022-11-27T00:07:09.724Z,57.76
2022-11-27T00:12:12.928Z,58.26
2022-11-27T00:17:14.784Z,57.83
2022-11-27T00:22:16.621Z,57.90
2022-11-27T00:27:19.786Z,57.75
2022-11-27T00:32:21.575Z,58.00
2022-11-27T00:37:23.326Z,58.03
2022-11-27T00:42:26.606Z,58.21
2022-11-27T00:47:28.412Z,58.47
2022-11-27T00:52:30.190Z,58.23
2022-11-27T00:57:33.410Z,58.29
2022-11-27T01:02:35.231Z,58.94
2022-11-27T01:07:37.172Z,59.01
2022-11-27T01:12:40.338Z,59.04
2022-11-27T01:17:42.133Z,58.56
2022-11-27T01:22:43.881Z,58.35
2022-11-27T01:27:47.221Z,57.81
2022-11-27T01:32:49.042Z,58.17
2022-11-27T01:37:50.872Z,58.21
2022-11-27T01:42:54.395Z,58.73
2022-11-27T01:47:57.722Z,59.33
2022-11-27T01:53:01.312Z,58.41
2022-11-27T01:58:08.273Z,57.92
2022-11-27T02:03:10.292Z,58.64
2022-11-27T02:08:12.995Z,58.86
2022-11-27T02:13:18.895Z,58.55
2022-11-27T02:18:23.306Z,58.24
2022-11-27T02:23:58.262Z,58.60
2022-11-27T02:29:03.570Z,58.37
2022-11-27T02:34:16.011Z,57.58
2022-11-27T02:39:19.494Z,56.75
2022-11-27T02:44:24.392Z,57.37
2022-11-27T02:49:26.262Z,58.09
2022-11-27T02:54:28.762Z,56.59
2022-11-27T02:59:32.083Z,56.31
2022-11-27T03:04:36.648Z,56.04
2022-11-27T03:09:39.651Z,56.08
2022-11-27T03:14:42.940Z,56.52
2022-11-27T03:19:48.655Z,56.92
2022-11-27T03:24:50.579Z,57.03
2022-11-27T03:29:54.776Z,56.92
2022-11-27T03:34:56.547Z,56.79
2022-11-27T03:39:58.370Z,56.79
2022-11-27T03:45:05.817Z,55.20
2022-11-27T03:50:15.779Z,54.88
2022-11-27T03:55:21.019Z,54.06
2022-11-27T04:00:24.169Z,54.43
2022-11-27T04:05:25.945Z,56.37
2022-11-27T04:10:27.769Z,56.47
2022-11-27T04:15:30.965Z,56.08
2022-11-27T04:20:32.733Z,56.69
2022-11-27T04:25:34.709Z,55.95
2022-11-27T04:30:37.882Z,53.87
2022-11-27T04:35:39.725Z,52.96
2022-11-27T04:40:41.506Z,53.20
2022-11-27T04:45:44.557Z,53.46
2022-11-27T04:50:46.403Z,54.04
2022-11-27T04:55:48.250Z,54.86
2022-11-27T05:00:51.528Z,55.37
2022-11-27T05:05:56.729Z,56.05
2022-11-27T05:11:00.466Z,56.37
2022-11-27T05:16:04.001Z,56.25
2022-11-27T05:21:06.966Z,55.98
2022-11-27T05:26:08.798Z,54.60
2022-11-27T05:31:12.096Z,55.54
2022-11-27T05:36:13.854Z,56.25
2022-11-27T05:41:15.698Z,56.87
2022-11-27T05:46:19.821Z,55.88
2022-11-27T05:51:21.648Z,54.02
2022-11-27T05:56:24.055Z,54.18
2022-11-27T06:01:27.227Z,55.45
2022-11-27T06:06:29.005Z,55.86
2022-11-27T06:11:30.808Z,54.99
2022-11-27T06:16:34.103Z,53.61
2022-11-27T06:21:36.014Z,53.27
2022-11-27T06:26:37.843Z,53.76
2022-11-27T06:31:41.102Z,54.30
2022-11-27T06:36:42.944Z,55.36
2022-11-27T06:41:44.766Z,54.78
2022-11-27T06:46:47.990Z,55.46
2022-11-27T06:51:50.646Z,55.18
2022-11-27T06:56:52.541Z,55.01
2022-11-27T07:01:56.214Z,54.98
2022-11-27T07:06:58.863Z,54.58
2022-11-27T07:12:00.655Z,54.34
2022-11-27T07:17:03.821Z,53.02
2022-11-27T07:22:05.621Z,52.54
2022-11-27T07:27:08.603Z,52.45
2022-11-27T07:32:11.802Z,52.57
2022-11-27T07:37:13.586Z,54.28
2022-11-27T07:42:37.894Z,53.70
2022-11-27T07:47:38.569Z,54.59
2022-11-27T07:52:42.233Z,55.23
2022-11-27T07:57:44.445Z,55.57
2022-11-27T08:02:47.578Z,54.90
2022-11-27T08:07:49.401Z,55.04
2022-11-27T08:12:51.226Z,54.69
2022-11-27T08:17:54.337Z,54.52
2022-11-27T08:23:01.198Z,54.39
2022-11-27T08:28:04.917Z,54.09
2022-11-27T08:33:08.052Z,52.74
2022-11-27T08:38:09.938Z,50.21
2022-11-27T08:43:11.727Z,48.68
2022-11-27T08:48:14.777Z,47.35
2022-11-27T08:53:16.654Z,45.79
2022-11-27T08:58:18.536Z,45.00
2022-11-27T09:03:21.675Z,45.11
2022-11-27T09:08:23.417Z,44.29
2022-11-27T09:13:25.256Z,43.72
2022-11-27T09:18:28.456Z,43.07
2022-11-27T09:23:30.233Z,43.87
2022-11-27T09:28:32.068Z,44.66
2022-11-27T09:33:36.078Z,44.84
2022-11-27T09:38:38.236Z,44.52
2022-11-27T09:43:45.181Z,44.00
2022-11-27T09:48:49.268Z,41.52
2022-11-27T09:53:52.706Z,41.49
2022-11-27T09:58:56.586Z,42.12
2022-11-27T10:04:00.852Z,43.57
2022-11-27T10:09:09.115Z,44.89
2022-11-27T10:14:22.196Z,44.67
2022-11-27T10:19:31.082Z,44.94
2022-11-27T10:24:37.483Z,45.80
2022-11-27T10:29:41.518Z,47.58
2022-11-27T10:34:48.562Z,47.64
2022-11-27T10:39:52.732Z,47.68
2022-11-27T10:44:57.907Z,47.67
2022-11-27T10:50:16.500Z,48.14
2022-11-27T10:55:21.626Z,49.00
2022-11-27T11:00:24.000Z,50.23
2022-11-27T11:10:53.724Z,51.56
2022-11-27T11:15:57.950Z,52.18
2022-11-27T11:21:02.302Z,52.39
2022-11-27T11:26:07.314Z,52.63
2022-11-27T11:31:09.856Z,52.91
2022-11-27T11:36:13.236Z,52.56
2022-11-27T11:41:17.957Z,52.66
2022-11-27T11:46:22.752Z,52.48
2022-11-27T11:51:34.996Z,52.50
2022-11-27T11:56:38.616Z,52.49
2022-11-27T12:01:54.302Z,52.17
2022-11-27T12:07:00.257Z,50.97
2022-11-27T12:12:04.925Z,51.08
2022-11-27T12:17:17.122Z,50.95
2022-11-27T12:22:26.856Z,50.56
2022-11-27T12:27:46.100Z,50.08
2022-11-27T12:33:26.964Z,49.97
2022-11-27T12:38:38.673Z,51.14
2022-11-27T12:43:42.045Z,49.87
2022-11-27T12:48:46.512Z,50.44
2022-11-27T12:53:52.135Z,50.88
2022-11-27T12:58:56.360Z,51.74
2022-11-27T13:04:03.681Z,51.59
2022-11-27T13:09:08.098Z,52.00
2022-11-27T13:14:11.737Z,51.74
2022-11-27T13:19:16.654Z,52.22
2022-11-27T13:24:19.831Z,51.84
2022-11-27T13:29:29.755Z,51.65
2022-11-27T13:34:31.811Z,52.07
2022-11-27T13:39:36.869Z,51.82
2022-11-27T13:44:41.655Z,51.96
2022-11-27T13:49:48.352Z,52.58
2022-11-27T13:54:55.416Z,52.89
2022-11-27T13:59:58.616Z,55.43
2022-11-27T14:05:00.400Z,55.15
2022-11-27T14:10:09.142Z,55.96
2022-11-27T14:15:20.508Z,55.57
2022-11-27T14:20:28.019Z,56.00
2022-11-27T14:25:31.739Z,56.82
2022-11-27T14:30:35.022Z,56.38
2022-11-27T14:35:36.792Z,56.55
2022-11-27T14:40:39.958Z,55.72
2022-11-27T14:45:43.944Z,55.27
2022-11-27T14:50:45.804Z,55.20
2022-11-27T14:55:49.628Z,55.38
2022-11-27T15:00:52.465Z,56.40
2022-11-27T15:05:56.230Z,57.03
2022-11-27T15:10:59.512Z,56.60
2022-11-27T15:16:03.480Z,56.90
2022-11-27T15:21:09.816Z,58.24
2022-11-27T15:26:17.960Z,58.42
2022-11-27T15:31:30.810Z,58.63
2022-11-27T15:36:39.700Z,58.46
2022-11-27T15:41:49.888Z,58.91
2022-11-27T15:46:52.305Z,58.42
2022-11-27T15:51:54.874Z,57.93
2022-11-27T15:56:58.070Z,58.65
2022-11-27T16:02:00.020Z,59.15
2022-11-27T16:07:01.931Z,59.18
2022-11-27T16:12:05.722Z,58.58
2022-11-27T16:17:07.546Z,58.09
2022-11-27T16:22:09.327Z,57.87
2022-11-27T16:27:12.458Z,58.26
2022-11-27T16:32:14.256Z,57.82
2022-11-27T16:37:18.549Z,57.38
2022-11-27T16:42:21.960Z,57.32
2022-11-27T16:47:23.873Z,56.94
2022-11-27T16:52:25.634Z,56.49
2022-11-27T16:57:28.868Z,55.96
2022-11-27T17:02:31.040Z,55.78
2022-11-27T17:07:33.023Z,56.30
2022-11-27T17:12:36.259Z,56.42
2022-11-27T17:17:40.214Z,55.77
2022-11-27T17:29:43.116Z,55.46
2022-11-27T17:34:46.507Z,55.33
2022-11-27T17:39:48.469Z,55.68
2022-11-27T17:44:50.634Z,56.25
2022-11-27T17:49:53.787Z,56.08
2022-11-27T17:54:56.878Z,55.54
2022-11-27T17:59:58.603Z,54.85
2022-11-27T18:05:02.043Z,54.23
2022-11-27T18:10:05.254Z,55.19
2022-11-27T18:15:09.488Z,55.56
2022-11-27T18:20:13.190Z,55.23
2022-11-27T18:25:15.000Z,55.76
2022-11-27T18:30:16.994Z,54.80
2022-11-27T18:35:23.242Z,54.89
2022-11-27T18:40:25.007Z,55.14
2022-11-27T18:45:33.320Z,55.55
2022-11-27T18:50:39.578Z,55.93
2022-11-27T18:55:41.630Z,56.20
2022-11-27T19:00:44.648Z,56.85
2022-11-27T19:05:48.773Z,56.07
2022-11-27T19:10:50.736Z,56.08
2022-11-27T19:15:52.600Z,56.68
2022-11-27T19:20:55.918Z,56.31
2022-11-27T19:26:04.325Z,55.89
2022-11-27T19:31:07.303Z,55.31
2022-11-27T19:36:11.443Z,55.51
2022-11-27T19:41:14.008Z,56.33
2022-11-27T19:46:16.250Z,55.20
2022-11-27T19:51:19.422Z,55.34
2022-11-27T19:56:21.507Z,55.44
2022-11-27T20:01:24.399Z,54.43
2022-11-27T20:06:29.274Z,54.51
2022-11-27T20:11:34.814Z,54.80
2022-11-27T20:16:38.717Z,55.23
2022-11-27T20:21:42.297Z,55.06
2022-11-27T20:26:44.087Z,54.36
2022-11-27T20:31:45.959Z,54.28
2022-11-27T20:36:49.075Z,53.70
2022-11-27T20:41:51.300Z,54.00
2022-11-27T20:46:52.994Z,52.96
2022-11-27T20:51:57.735Z,53.88
2022-11-27T20:56:59.523Z,54.31
2022-11-27T21:02:02.733Z,53.74
2022-11-27T21:07:06.330Z,54.21
2022-11-27T21:12:08.131Z,56.05
2022-11-27T21:17:09.988Z,55.95
2022-11-27T21:22:13.172Z,56.24
2022-11-27T21:27:15.138Z,57.08
2022-11-27T21:32:22.597Z,56.14
2022-11-27T21:37:26.115Z,55.69
2022-11-27T21:42:29.292Z,55.28
2022-11-27T21:47:31.125Z,56.31
2022-11-27T21:52:35.546Z,55.66
2022-11-27T21:57:37.303Z,55.46
2022-11-27T22:02:39.222Z,55.48
2022-11-27T22:07:42.730Z,55.94
2022-11-27T22:12:44.468Z,55.05
2022-11-27T22:17:46.294Z,56.32
2022-11-27T22:22:49.597Z,55.97
2022-11-27T22:27:51.398Z,56.08
2022-11-27T22:32:53.248Z,56.65
2022-11-27T22:37:56.496Z,56.09
2022-11-27T22:42:58.410Z,56.48
2022-11-27T22:48:00.180Z,55.69
2022-11-27T22:53:03.313Z,55.70
2022-11-27T22:58:05.134Z,54.93
2022-11-27T23:03:07.685Z,56.12
2022-11-27T23:08:10.956Z,55.87
2022-11-27T23:13:13.522Z,55.45
2022-11-27T23:18:15.363Z,55.21
2022-11-27T23:23:18.430Z,54.90
2022-11-27T23:28:20.195Z,54.66
2022-11-27T23:33:21.939Z,54.24
2022-11-27T23:38:25.060Z,55.08
2022-11-27T23:43:26.778Z,54.59
2022-11-27T23:48:28.571Z,54.15
2022-11-27T23:53:31.647Z,53.80
2022-11-27T23:58:33.479Z,53.71
